createdAt,value
2018-12-19T00:00:15.663Z,6.14
2018-12-19T00:01:15.640Z,6.20
2018-12-19T00:02:15.581Z,6.20
2018-12-19T00:03:15.540Z,6.20
2018-12-19T00:04:15.506Z,6.22
2018-12-19T00:05:15.454Z,6.31
2018-12-19T00:06:15.414Z,6.33
2018-12-19T00:07:15.373Z,6.24
2018-12-19T00:08:15.337Z,6.20
2018-12-19T00:09:15.293Z,6.33
2018-12-19T00:10:15.251Z,6.33
2018-12-19T00:11:15.205Z,6.28
2018-12-19T00:12:15.161Z,6.38
2018-12-19T00:13:15.118Z,6.39
2018-12-19T00:14:15.081Z,6.33
2018-12-19T00:15:15.037Z,6.36
2018-12-19T00:16:15.000Z,6.35
2018-12-19T00:17:14.959Z,6.35
2018-12-19T00:18:14.916Z,6.31
2018-12-19T00:19:14.871Z,6.31
2018-12-19T00:20:14.827Z,6.49
2018-12-19T00:21:14.793Z,6.44
2018-12-19T00:22:14.751Z,6.44
2018-12-19T00:23:14.701Z,6.41
2018-12-19T00:24:14.659Z,6.46
2018-12-19T00:25:14.617Z,6.39
2018-12-19T00:26:14.579Z,6.41
2018-12-19T00:27:14.539Z,6.45
2018-12-19T00:28:14.497Z,6.59
2018-12-19T00:29:14.455Z,6.49
2018-12-19T00:30:14.414Z,6.54
2018-12-19T00:31:14.368Z,6.56
2018-12-19T00:32:14.327Z,6.56
2018-12-19T00:33:14.285Z,6.54
2018-12-19T00:34:14.243Z,6.54
2018-12-19T00:35:14.202Z,6.56
2018-12-19T00:36:14.169Z,6.56
2018-12-19T00:37:14.116Z,6.64
2018-12-19T00:38:14.077Z,6.69
2018-12-19T00:39:14.036Z,6.63
2018-12-19T00:40:13.997Z,6.67
2018-12-19T00:41:13.954Z,6.63
2018-12-19T00:42:13.912Z,6.62
2018-12-19T00:43:13.867Z,6.62
2018-12-19T00:44:13.823Z,6.64
2018-12-19T00:45:13.783Z,6.57
2018-12-19T00:46:13.743Z,6.63
2018-12-19T00:47:13.702Z,6.63
2018-12-19T00:48:13.661Z,6.64
2018-12-19T00:49:13.621Z,6.59
2018-12-19T00:50:13.577Z,6.64
2018-12-19T00:51:13.533Z,6.66
2018-12-19T00:52:13.555Z,6.59
2018-12-19T00:53:13.454Z,6.57
2018-12-19T00:54:13.412Z,6.54
2018-12-19T00:55:13.367Z,6.54
2018-12-19T00:56:13.323Z,6.59
2018-12-19T00:57:13.280Z,6.57
2018-12-19T00:58:13.243Z,6.57
2018-12-19T00:59:13.201Z,6.56
2018-12-19T01:00:13.163Z,6.66
2018-12-19T01:01:13.122Z,6.62
2018-12-19T01:02:13.077Z,6.64
2018-12-19T01:03:13.034Z,6.57
2018-12-19T01:04:12.990Z,6.63
2018-12-19T01:05:12.949Z,6.60
2018-12-19T01:06:12.909Z,6.67
2018-12-19T01:07:12.868Z,6.67
2018-12-19T01:08:12.828Z,6.64
2018-12-19T01:09:15.900Z,6.64
2018-12-19T01:10:12.743Z,6.69
2018-12-19T01:11:12.702Z,6.62
2018-12-19T01:12:12.662Z,6.77
2018-12-19T01:13:12.621Z,6.69
2018-12-19T01:14:12.577Z,6.70
2018-12-19T01:15:12.533Z,6.78
2018-12-19T01:16:12.490Z,6.77
2018-12-19T01:17:12.447Z,6.81
2018-12-19T01:18:12.412Z,6.81
2018-12-19T01:19:12.368Z,6.78
2018-12-19T01:20:12.338Z,6.75
2018-12-19T01:21:12.289Z,6.81
2018-12-19T01:22:12.244Z,6.66
2018-12-19T01:23:12.199Z,6.72
2018-12-19T01:24:12.157Z,6.66
2018-12-19T01:25:12.121Z,6.72
2018-12-19T01:26:12.078Z,6.69
2018-12-19T01:27:12.033Z,6.67
2018-12-19T01:28:11.991Z,6.70
2018-12-19T01:29:11.949Z,6.66
2018-12-19T01:30:11.909Z,6.79
2018-12-19T01:31:11.869Z,6.74
2018-12-19T01:32:11.829Z,6.78
2018-12-19T01:33:11.790Z,6.85
2018-12-19T01:34:11.744Z,6.79
2018-12-19T01:35:11.701Z,6.82
2018-12-19T01:36:11.659Z,6.78
2018-12-19T01:37:11.617Z,6.72
2018-12-19T01:38:11.580Z,6.81
2018-12-19T01:39:11.535Z,6.72
2018-12-19T01:40:11.498Z,6.70
2018-12-19T01:41:11.450Z,6.67
2018-12-19T01:42:11.410Z,6.77
2018-12-19T01:43:11.368Z,6.74
2018-12-19T01:44:11.331Z,6.72
2018-12-19T01:45:11.291Z,6.70
2018-12-19T01:46:11.246Z,6.72
2018-12-19T01:47:11.201Z,6.74
2018-12-19T01:48:11.161Z,6.72
2018-12-19T01:49:11.116Z,6.64
2018-12-19T01:50:11.074Z,6.75
2018-12-19T01:51:11.036Z,6.75
2018-12-19T01:52:10.998Z,6.70
2018-12-19T01:53:10.955Z,6.74
2018-12-19T01:54:10.914Z,6.72
2018-12-19T01:55:10.870Z,6.74
2018-12-19T01:56:10.825Z,6.79
2018-12-19T01:57:10.791Z,6.72
2018-12-19T01:58:10.747Z,6.72
2018-12-19T01:59:10.702Z,6.69
2018-12-19T02:00:10.659Z,6.75
2018-12-19T02:01:10.618Z,6.70
2018-12-19T02:02:10.578Z,6.74
2018-12-19T02:03:10.537Z,6.74
2018-12-19T02:04:10.499Z,6.66
2018-12-19T02:05:10.458Z,6.69
2018-12-19T02:06:10.417Z,6.66
2018-12-19T02:07:10.370Z,6.70
2018-12-19T02:08:10.326Z,6.77
2018-12-19T02:09:10.287Z,6.67
2018-12-19T02:10:10.247Z,6.75
2018-12-19T02:11:10.205Z,6.78
2018-12-19T02:12:10.166Z,6.81
2018-12-19T02:13:10.118Z,6.74
2018-12-19T02:14:10.085Z,6.70
2018-12-19T02:15:10.041Z,6.70
2018-12-19T02:16:10.000Z,6.63
2018-12-19T02:17:09.960Z,6.67
2018-12-19T02:18:09.917Z,6.69
2018-12-19T02:19:09.872Z,6.67
2018-12-19T02:20:09.828Z,6.63
2018-12-19T02:21:09.790Z,6.67
2018-12-19T02:22:09.746Z,6.77
2018-12-19T02:23:09.712Z,6.74
2018-12-19T02:24:09.688Z,6.78
2018-12-19T02:25:09.624Z,6.75
2018-12-19T02:26:09.585Z,6.75
2018-12-19T02:27:09.536Z,6.69
2018-12-19T02:28:09.501Z,6.66
2018-12-19T02:29:09.457Z,6.69
2018-12-19T02:30:09.423Z,6.66
2018-12-19T02:31:09.371Z,6.77
2018-12-19T02:32:09.329Z,6.69
2018-12-19T02:33:09.289Z,6.69
2018-12-19T02:34:09.248Z,6.64
2018-12-19T02:35:09.210Z,6.70
2018-12-19T02:36:09.169Z,6.74
2018-12-19T02:37:09.129Z,6.66
2018-12-19T02:38:09.086Z,6.74
2018-12-19T02:39:09.046Z,6.74
2018-12-19T02:40:08.999Z,6.79
2018-12-19T02:41:08.961Z,6.77
2018-12-19T02:42:08.915Z,6.75
2018-12-19T02:43:08.876Z,6.84
2018-12-19T02:44:08.835Z,6.84
2018-12-19T02:45:08.790Z,6.87
2018-12-19T02:46:08.751Z,6.84
2018-12-19T02:47:08.713Z,6.79
2018-12-19T02:48:08.667Z,6.81
2018-12-19T02:49:08.628Z,6.82
2018-12-19T02:50:08.588Z,6.82
2018-12-19T02:51:08.538Z,6.74
2018-12-19T02:52:08.498Z,6.77
2018-12-19T02:53:08.459Z,6.78
2018-12-19T02:54:08.415Z,6.88
2018-12-19T02:55:08.379Z,6.82
2018-12-19T02:56:08.336Z,6.82
2018-12-19T02:57:08.293Z,6.84
2018-12-19T02:58:08.255Z,6.87
2018-12-19T02:59:08.207Z,6.88
2018-12-19T03:00:08.170Z,6.89
2018-12-19T03:01:08.129Z,6.88
2018-12-19T03:02:08.090Z,6.95
2018-12-19T03:03:08.052Z,6.89
2018-12-19T03:04:08.001Z,6.92
2018-12-19T03:05:07.959Z,6.89
2018-12-19T03:06:07.922Z,6.96
2018-12-19T03:07:07.881Z,6.99
2018-12-19T03:08:07.839Z,6.99
2018-12-19T03:09:07.795Z,7.03
2018-12-19T03:10:07.757Z,6.99
2018-12-19T03:11:07.707Z,6.95
2018-12-19T03:12:07.669Z,6.97
2018-12-19T03:13:07.627Z,6.93
2018-12-19T03:14:07.589Z,6.88
2018-12-19T03:15:07.547Z,6.87
2018-12-19T03:16:07.505Z,6.89
2018-12-19T03:17:07.464Z,6.88
2018-12-19T03:18:07.419Z,6.88
2018-12-19T03:19:07.382Z,6.88
2018-12-19T03:20:07.340Z,6.85
2018-12-19T03:21:07.302Z,6.87
2018-12-19T03:22:07.258Z,6.84
2018-12-19T03:23:07.211Z,6.88
2018-12-19T03:24:07.173Z,6.89
2018-12-19T03:25:07.129Z,6.96
2018-12-19T03:26:07.090Z,6.92
2018-12-19T03:27:07.051Z,6.92
2018-12-19T03:28:07.007Z,6.84
2018-12-19T03:29:06.966Z,7.02
2018-12-19T03:30:06.970Z,6.99
2018-12-19T03:31:06.880Z,6.95
2018-12-19T03:32:06.843Z,7.00
2018-12-19T03:33:06.800Z,7.00
2018-12-19T03:34:06.766Z,7.00
2018-12-19T03:35:06.714Z,6.99
2018-12-19T03:36:06.673Z,7.02
2018-12-19T03:37:06.631Z,7.06
2018-12-19T03:38:06.591Z,7.11
2018-12-19T03:39:06.554Z,7.06
2018-12-19T03:40:06.509Z,7.11
2018-12-19T03:41:06.470Z,7.10
2018-12-19T03:42:06.428Z,7.06
2018-12-19T03:43:06.380Z,7.02
2018-12-19T03:44:06.343Z,7.07
2018-12-19T03:45:06.301Z,7.03
2018-12-19T03:46:06.259Z,7.05
2018-12-19T03:47:06.221Z,7.06
2018-12-19T03:48:06.175Z,7.06
2018-12-19T03:49:06.135Z,7.06
2018-12-19T03:50:06.090Z,7.14
2018-12-19T03:51:06.086Z,7.11
2018-12-19T03:52:06.013Z,7.28
2018-12-19T04:06:31.946Z,7.35
2018-12-19T04:07:31.876Z,7.38
2018-12-19T04:08:31.824Z,7.32
2018-12-19T04:09:31.787Z,7.35
2018-12-19T04:10:31.737Z,7.39
2018-12-19T04:11:31.696Z,7.43
2018-12-19T04:12:31.652Z,7.32
2018-12-19T04:13:31.607Z,7.32
2018-12-19T04:14:31.566Z,7.32
2018-12-19T04:15:31.520Z,7.35
2018-12-19T04:16:31.476Z,7.40
2018-12-19T04:17:31.435Z,7.39
2018-12-19T04:18:31.392Z,7.38
2018-12-19T04:19:31.347Z,7.39
2018-12-19T04:20:31.303Z,7.36
2018-12-19T04:21:31.263Z,7.40
2018-12-19T04:22:31.228Z,7.51
2018-12-19T04:23:31.181Z,7.45
2018-12-19T04:24:31.145Z,7.47
2018-12-19T04:25:31.099Z,7.48
2018-12-19T04:26:31.060Z,7.50
2018-12-19T04:27:31.016Z,7.50
2018-12-19T04:28:30.975Z,7.51
2018-12-19T04:29:30.925Z,7.50
2018-12-19T04:30:30.890Z,7.54
2018-12-19T04:31:30.850Z,7.50
2018-12-19T04:32:30.807Z,7.48
2018-12-19T04:33:30.761Z,7.50
2018-12-19T04:34:30.722Z,7.54
2018-12-19T04:35:30.682Z,7.58
2018-12-19T04:36:30.642Z,7.50
2018-12-19T04:37:30.598Z,7.50
2018-12-19T04:38:30.558Z,7.50
2018-12-19T04:39:30.520Z,7.50
2018-12-19T04:40:30.488Z,7.53
2018-12-19T04:41:30.427Z,7.51
2018-12-19T04:42:30.388Z,7.61
2018-12-19T04:43:30.349Z,7.56
2018-12-19T04:44:30.313Z,7.50
2018-12-19T04:45:30.266Z,7.54
2018-12-19T04:46:30.224Z,7.60
2018-12-19T04:47:30.181Z,7.50
2018-12-19T04:48:30.137Z,7.67
2018-12-19T04:49:30.105Z,7.58
2018-12-19T04:50:30.060Z,7.57
2018-12-19T04:51:30.017Z,7.63
2018-12-19T04:52:29.973Z,7.56
2018-12-19T04:53:29.930Z,7.53
2018-12-19T04:54:29.892Z,7.69
2018-12-19T04:55:29.859Z,7.57
2018-12-19T04:56:29.816Z,7.53
2018-12-19T04:57:29.772Z,7.53
2018-12-19T04:58:29.729Z,7.57
2018-12-19T04:59:29.689Z,7.54
2018-12-19T05:00:29.645Z,7.67
2018-12-19T05:01:29.603Z,7.57
2018-12-19T05:02:29.562Z,7.69
2018-12-19T05:03:29.523Z,7.57
2018-12-19T05:04:29.484Z,7.57
2018-12-19T05:05:29.439Z,7.57
2018-12-19T05:06:29.397Z,7.57
2018-12-19T05:07:29.361Z,7.58
2018-12-19T05:08:29.321Z,7.54
2018-12-19T05:09:29.277Z,7.57
2018-12-19T05:10:29.235Z,7.56
2018-12-19T05:11:29.196Z,7.54
2018-12-19T05:12:29.150Z,7.58
2018-12-19T05:13:29.107Z,7.66
2018-12-19T05:14:29.066Z,7.63
2018-12-19T05:15:29.030Z,7.60
2018-12-19T05:16:28.993Z,7.69
2018-12-19T05:17:28.950Z,7.63
2018-12-19T05:18:28.905Z,7.69
2018-12-19T05:19:28.863Z,7.70
2018-12-19T05:20:28.820Z,7.67
2018-12-19T05:21:28.784Z,7.58
2018-12-19T05:22:28.745Z,7.70
2018-12-19T05:23:28.698Z,7.69
2018-12-19T05:24:28.655Z,7.66
2018-12-19T05:25:28.615Z,7.60
2018-12-19T05:26:28.575Z,7.66
2018-12-19T05:27:28.537Z,7.58
2018-12-19T05:28:28.497Z,7.73
2018-12-19T05:29:28.454Z,7.67
2018-12-19T05:30:28.415Z,7.61
2018-12-19T05:31:28.368Z,7.72
2018-12-19T05:32:28.330Z,7.73
2018-12-19T05:33:28.288Z,7.69
2018-12-19T05:34:28.246Z,7.75
2018-12-19T05:35:28.210Z,7.72
2018-12-19T05:36:28.168Z,7.73
2018-12-19T05:37:28.124Z,7.69
2018-12-19T05:38:28.081Z,7.73
2018-12-19T05:39:28.047Z,7.69
2018-12-19T05:40:28.004Z,7.60
2018-12-19T05:41:27.963Z,7.54
2018-12-19T05:42:27.924Z,7.57
2018-12-19T05:43:27.876Z,7.61
2018-12-19T05:44:27.838Z,7.60
2018-12-19T05:45:27.797Z,7.53
2018-12-19T05:46:27.754Z,7.69
2018-12-19T05:47:27.720Z,7.61
2018-12-19T05:48:27.677Z,7.54
2018-12-19T05:49:27.635Z,7.63
2018-12-19T05:50:27.596Z,7.61
2018-12-19T05:51:27.550Z,7.60
2018-12-19T05:52:27.512Z,7.67
2018-12-19T05:53:27.471Z,7.69
2018-12-19T05:54:27.434Z,7.69
2018-12-19T05:55:27.386Z,7.60
2018-12-19T05:56:27.348Z,7.72
2018-12-19T05:57:27.310Z,7.69
2018-12-19T05:58:27.263Z,7.73
2018-12-19T05:59:27.229Z,7.66
2018-12-19T06:00:27.187Z,7.76
2018-12-19T06:01:27.144Z,7.85
2018-12-19T06:02:27.107Z,7.82
2018-12-19T06:03:27.060Z,7.79
2018-12-19T06:04:27.021Z,7.75
2018-12-19T06:05:26.979Z,7.76
2018-12-19T06:06:26.936Z,7.83
2018-12-19T06:07:26.901Z,7.70
2018-12-19T06:08:26.860Z,7.70
2018-12-19T06:09:26.816Z,7.77
2018-12-19T06:10:26.774Z,7.63
2018-12-19T06:11:26.738Z,7.69
2018-12-19T06:12:26.695Z,7.61
2018-12-19T06:13:26.655Z,7.66
2018-12-19T06:14:26.617Z,7.69
2018-12-19T06:15:26.569Z,7.66
2018-12-19T06:16:26.531Z,7.60
2018-12-19T06:17:26.489Z,7.60
2018-12-19T06:18:26.446Z,7.57
2018-12-19T06:19:26.415Z,7.70
2018-12-19T06:20:26.369Z,7.58
2018-12-19T06:21:26.328Z,7.54
2018-12-19T06:22:26.289Z,7.51
2018-12-19T06:23:26.244Z,7.51
2018-12-19T06:24:26.207Z,7.47
2018-12-19T06:25:26.166Z,7.50
2018-12-19T06:26:26.132Z,7.47
2018-12-19T06:27:26.080Z,7.47
2018-12-19T06:28:26.040Z,7.39
2018-12-19T06:29:25.998Z,7.50
2018-12-19T06:30:25.956Z,7.35
2018-12-19T06:31:25.920Z,7.38
2018-12-19T06:32:25.881Z,7.35
2018-12-19T06:33:25.837Z,7.35
2018-12-19T06:34:25.798Z,7.32
2018-12-19T06:35:25.752Z,7.24
2018-12-19T06:36:25.713Z,7.29
2018-12-19T06:37:25.671Z,7.31
2018-12-19T06:38:25.628Z,7.36
2018-12-19T06:39:25.594Z,7.28
2018-12-19T06:40:25.551Z,7.31
2018-12-19T06:41:25.507Z,7.28
2018-12-19T06:42:25.465Z,7.18
2018-12-19T06:43:25.437Z,7.23
2018-12-19T06:44:25.387Z,7.24
2018-12-19T06:45:25.346Z,7.25
2018-12-19T06:46:25.307Z,7.17
2018-12-19T06:47:25.260Z,7.18
2018-12-19T06:48:25.222Z,7.18
2018-12-19T06:49:25.180Z,7.18
2018-12-19T06:50:25.153Z,7.03
2018-12-19T06:51:25.103Z,7.05
2018-12-19T06:52:25.060Z,7.02
2018-12-19T06:53:25.018Z,7.11
2018-12-19T06:54:24.980Z,7.06
2018-12-19T06:55:24.943Z,7.00
2018-12-19T06:56:24.895Z,7.13
2018-12-19T06:57:24.854Z,7.02
2018-12-19T06:58:24.816Z,7.11
2018-12-19T06:59:24.769Z,7.06
2018-12-19T07:00:24.730Z,7.03
2018-12-19T07:01:24.689Z,7.06
2018-12-19T07:02:24.645Z,7.14
2018-12-19T07:03:24.611Z,7.14
2018-12-19T07:04:24.571Z,7.18
2018-12-19T07:05:24.527Z,7.28
2018-12-19T07:06:24.491Z,7.21
2018-12-19T07:07:24.440Z,7.17
2018-12-19T07:08:24.402Z,7.28
2018-12-19T07:09:24.362Z,7.23
2018-12-19T07:10:24.319Z,7.28
2018-12-19T07:11:24.283Z,7.39
2018-12-19T07:12:24.240Z,7.25
2018-12-19T07:13:24.196Z,7.36
2018-12-19T07:14:24.154Z,7.36
2018-12-19T07:15:24.119Z,7.35
2018-12-19T07:16:24.079Z,7.42
2018-12-19T07:17:24.036Z,7.45
2018-12-19T07:18:23.996Z,7.47
2018-12-19T07:19:23.951Z,7.58
2018-12-19T07:20:23.910Z,7.47
2018-12-19T07:21:23.869Z,7.53
2018-12-19T07:22:23.826Z,7.69
2018-12-19T07:23:23.791Z,7.60
2018-12-19T07:24:23.749Z,7.67
2018-12-19T07:25:23.707Z,7.57
2018-12-19T07:26:23.669Z,7.63
2018-12-19T07:27:23.624Z,7.67
2018-12-19T07:28:23.584Z,7.69
2018-12-19T07:29:23.543Z,7.73
2018-12-19T07:30:23.505Z,7.63
2018-12-19T07:31:23.459Z,7.75
2018-12-19T07:32:23.420Z,7.69
2018-12-19T07:33:23.378Z,7.73
2018-12-19T07:34:23.337Z,7.70
2018-12-19T07:35:23.300Z,7.67
2018-12-19T07:36:23.259Z,7.73
2018-12-19T07:37:23.218Z,7.67
2018-12-19T07:38:23.182Z,7.67
2018-12-19T07:39:23.131Z,7.77
2018-12-19T07:40:23.094Z,7.80
2018-12-19T07:41:23.049Z,7.67
2018-12-19T07:42:23.009Z,7.70
2018-12-19T07:43:22.974Z,7.73
2018-12-19T07:44:22.931Z,7.73
2018-12-19T07:45:22.888Z,7.79
2018-12-19T07:46:24.254Z,7.83
2018-12-19T07:47:22.811Z,7.73
2018-12-19T07:48:22.768Z,7.72
2018-12-19T07:49:22.730Z,7.82
2018-12-19T07:50:22.691Z,7.76
2018-12-19T07:51:22.642Z,7.85
2018-12-19T07:52:22.603Z,7.82
2018-12-19T07:53:22.561Z,7.76
2018-12-19T07:54:22.577Z,7.82
2018-12-19T07:55:22.485Z,7.82
2018-12-19T07:56:22.442Z,7.73
2018-12-19T07:57:22.401Z,7.83
2018-12-19T07:58:22.362Z,7.82
2018-12-19T07:59:22.315Z,7.79
2018-12-19T08:00:27.436Z,7.79
2018-12-19T08:01:22.239Z,7.90
2018-12-19T08:02:22.201Z,7.85
2018-12-19T08:03:22.153Z,7.85
2018-12-19T08:04:22.116Z,7.93
2018-12-19T08:05:26.105Z,7.91
2018-12-19T08:06:22.034Z,7.93
2018-12-19T08:07:21.997Z,7.94
2018-12-19T08:08:21.954Z,7.83
2018-12-19T08:09:21.912Z,7.97
2018-12-19T08:10:21.875Z,7.90
2018-12-19T08:11:21.827Z,7.95
2018-12-19T08:12:21.789Z,7.88
2018-12-19T08:13:21.749Z,7.95
2018-12-19T08:14:21.705Z,7.91
2018-12-19T08:15:21.673Z,7.91
2018-12-19T08:16:21.632Z,7.93
2018-12-19T08:17:21.586Z,7.93
2018-12-19T08:18:21.542Z,7.94
2018-12-19T08:19:21.510Z,7.98
2018-12-19T08:20:21.467Z,7.95
2018-12-19T08:21:21.425Z,7.94
2018-12-19T08:22:21.386Z,7.98
2018-12-19T08:23:21.340Z,8.01
2018-12-19T08:24:21.301Z,7.95
2018-12-19T08:25:21.261Z,7.95
2018-12-19T08:26:21.219Z,7.98
2018-12-19T08:27:21.184Z,8.05
2018-12-19T08:28:21.141Z,7.97
2018-12-19T08:29:21.099Z,8.01
2018-12-19T08:30:21.061Z,7.98
2018-12-19T08:31:21.014Z,8.03
2018-12-19T08:32:20.979Z,8.03
2018-12-19T08:33:22.353Z,8.08
2018-12-19T08:34:20.899Z,8.03
2018-12-19T08:35:20.852Z,8.12
2018-12-19T08:36:20.814Z,8.08
2018-12-19T08:37:20.773Z,8.18
2018-12-19T08:38:20.731Z,8.19
2018-12-19T08:39:20.696Z,8.18
2018-12-19T08:40:20.654Z,8.16
2018-12-19T08:41:20.617Z,8.18
2018-12-19T08:42:20.576Z,8.19
2018-12-19T08:43:20.528Z,8.19
2018-12-19T08:44:20.494Z,8.13
2018-12-19T08:45:20.450Z,8.16
2018-12-19T08:46:20.409Z,8.20
2018-12-19T08:47:20.372Z,8.16
2018-12-19T08:48:20.329Z,8.18
2018-12-19T08:49:20.290Z,8.15
2018-12-19T08:50:20.244Z,8.10
2018-12-19T08:51:20.209Z,8.16
2018-12-19T08:52:20.168Z,8.23
2018-12-19T08:53:20.127Z,8.13
2018-12-19T08:54:20.088Z,8.13
2018-12-19T08:55:20.042Z,8.20
2018-12-19T08:56:20.005Z,8.16
2018-12-19T08:57:19.962Z,8.16
2018-12-19T08:58:19.920Z,8.16
2018-12-19T08:59:19.887Z,8.19
2018-12-19T09:00:19.844Z,8.19
2018-12-19T09:01:20.133Z,8.19
2018-12-19T09:02:19.766Z,8.19
2018-12-19T09:03:19.718Z,8.16
2018-12-19T09:04:25.665Z,8.18
2018-12-19T09:05:19.642Z,8.19
2018-12-19T09:06:19.603Z,8.18
2018-12-19T09:07:19.556Z,8.13
2018-12-19T09:08:19.518Z,8.16
2018-12-19T09:09:19.477Z,8.15
2018-12-19T09:10:19.437Z,8.23
2018-12-19T09:11:19.401Z,8.13
2018-12-19T09:12:19.360Z,8.18
2018-12-19T09:13:19.318Z,8.13
2018-12-19T09:14:19.280Z,8.18
2018-12-19T09:15:19.248Z,8.16
2018-12-19T09:16:19.196Z,8.20
2018-12-19T09:17:19.155Z,8.20
2018-12-19T09:18:19.112Z,8.26
2018-12-19T09:19:19.078Z,8.26
2018-12-19T09:20:19.036Z,8.26
2018-12-19T09:21:18.997Z,8.30
2018-12-19T09:22:18.952Z,8.33
2018-12-19T09:23:18.913Z,8.37
2018-12-19T09:24:18.874Z,8.24
2018-12-19T09:25:18.837Z,8.31
2018-12-19T09:26:18.795Z,8.30
2018-12-19T09:27:18.753Z,8.31
2018-12-19T09:28:18.711Z,8.30
2018-12-19T09:29:18.667Z,8.31
2018-12-19T09:30:18.635Z,8.31
2018-12-19T09:31:18.594Z,8.36
2018-12-19T09:32:18.550Z,8.31
2018-12-19T09:33:18.511Z,8.45
2018-12-19T09:34:18.466Z,8.46
2018-12-19T09:35:18.428Z,8.48
2018-12-19T09:36:18.391Z,8.48
2018-12-19T09:37:18.351Z,8.53
2018-12-19T09:38:18.311Z,8.48
2018-12-19T09:39:18.269Z,8.53
2018-12-19T09:40:18.226Z,8.55
2018-12-19T09:41:18.184Z,8.51
2018-12-19T09:42:18.145Z,8.56
2018-12-19T09:43:18.105Z,8.53
2018-12-19T09:44:18.073Z,8.56
2018-12-19T09:45:18.030Z,8.63
2018-12-19T09:46:17.983Z,8.61
2018-12-19T09:47:17.945Z,8.67
2018-12-19T09:48:17.909Z,8.67
2018-12-19T09:49:17.867Z,8.52
2018-12-19T09:50:17.830Z,8.63
2018-12-19T09:51:17.785Z,8.69
2018-12-19T09:52:17.743Z,8.71
2018-12-19T09:53:17.700Z,8.73
2018-12-19T09:54:17.661Z,8.73
2018-12-19T09:55:17.623Z,8.76
2018-12-19T09:56:17.584Z,8.76
2018-12-19T09:57:17.546Z,8.79
2018-12-19T09:58:17.506Z,8.73
2018-12-19T09:59:17.464Z,8.81
2018-12-19T10:00:17.422Z,8.81
2018-12-19T10:01:17.379Z,8.85
2018-12-19T10:02:17.345Z,8.84
2018-12-19T10:03:17.304Z,8.85
2018-12-19T10:04:17.261Z,8.87
2018-12-19T10:05:17.219Z,8.89
2018-12-19T10:19:29.036Z,8.89
2018-12-19T10:20:28.962Z,8.91
2018-12-19T10:21:28.915Z,8.87
2018-12-19T10:22:28.869Z,8.99
2018-12-19T10:23:28.826Z,8.97
2018-12-19T10:24:28.787Z,9.02
2018-12-19T10:25:28.745Z,9.08
2018-12-19T10:26:28.705Z,8.95
2018-12-19T10:27:28.666Z,9.06
2018-12-19T10:28:28.619Z,9.08
2018-12-19T10:29:28.575Z,9.13
2018-12-19T10:30:28.532Z,9.14
2018-12-19T10:31:28.490Z,9.18
2018-12-19T10:32:28.450Z,9.19
2018-12-19T10:33:28.411Z,9.18
2018-12-19T10:34:28.372Z,9.31
2018-12-19T10:35:28.327Z,9.23
2018-12-19T10:36:28.286Z,9.31
2018-12-19T10:37:28.251Z,9.34
2018-12-19T10:38:28.209Z,9.28
2018-12-19T10:39:28.169Z,9.34
2018-12-19T10:40:28.126Z,9.39
2018-12-19T10:41:28.083Z,9.25
2018-12-19T10:42:28.040Z,9.28
2018-12-19T10:43:28.002Z,9.29
2018-12-19T10:44:27.966Z,9.23
2018-12-19T10:45:27.922Z,9.25
2018-12-19T10:46:27.885Z,9.32
2018-12-19T10:47:27.845Z,9.31
2018-12-19T10:48:27.802Z,9.29
2018-12-19T10:49:27.759Z,9.25
2018-12-19T10:50:27.718Z,9.29
2018-12-19T10:51:27.685Z,9.36
2018-12-19T10:52:27.641Z,9.23
2018-12-19T10:53:27.598Z,9.21
2018-12-19T10:54:27.557Z,9.31
2018-12-19T10:55:27.518Z,9.25
2018-12-19T10:56:27.477Z,9.32
2018-12-19T10:57:27.440Z,9.34
2018-12-19T10:58:27.404Z,9.41
2018-12-19T10:59:27.360Z,9.46
2018-12-19T11:00:27.322Z,9.40
2018-12-19T11:01:27.278Z,9.48
2018-12-19T11:02:27.434Z,9.46
2018-12-19T11:03:27.201Z,9.56
2018-12-19T11:04:27.155Z,9.58
2018-12-19T11:05:27.123Z,9.55
2018-12-19T11:06:27.080Z,9.51
2018-12-19T11:07:27.039Z,9.55
2018-12-19T11:08:26.996Z,9.58
2018-12-19T11:09:26.963Z,9.55
2018-12-19T11:10:26.923Z,9.64
2018-12-19T11:11:32.234Z,9.59
2018-12-19T11:12:26.842Z,9.64
2018-12-19T11:13:26.796Z,9.61
2018-12-19T11:14:26.760Z,9.55
2018-12-19T11:15:26.719Z,9.56
2018-12-19T11:16:26.678Z,9.56
2018-12-19T11:17:26.644Z,9.59
2018-12-19T11:18:26.602Z,9.56
2018-12-19T11:19:26.562Z,9.69
2018-12-19T11:20:26.523Z,9.64
2018-12-19T11:21:26.477Z,9.72
2018-12-19T11:22:26.443Z,9.72
2018-12-19T11:23:26.403Z,9.68
2018-12-19T11:24:26.365Z,9.69
2018-12-19T11:25:26.319Z,9.72
2018-12-19T11:26:26.282Z,9.65
2018-12-19T11:27:26.243Z,9.58
2018-12-19T11:28:26.199Z,9.74
2018-12-19T11:29:26.166Z,9.68
2018-12-19T11:30:26.127Z,9.59
2018-12-19T11:31:26.085Z,9.58
2018-12-19T11:32:26.047Z,9.72
2018-12-19T11:33:26.005Z,9.72
2018-12-19T11:34:25.963Z,9.66
2018-12-19T11:35:25.924Z,9.66
2018-12-19T11:36:25.883Z,9.61
2018-12-19T11:37:25.849Z,9.62
2018-12-19T11:38:25.811Z,9.69
2018-12-19T11:39:25.776Z,9.59
2018-12-19T11:40:25.723Z,9.68
2018-12-19T11:41:25.690Z,9.68
2018-12-19T11:42:25.649Z,9.66
2018-12-19T11:43:25.610Z,9.69
2018-12-19T11:44:25.603Z,9.64
2018-12-19T11:45:25.527Z,9.73
2018-12-19T11:46:25.489Z,9.66
2018-12-19T11:47:25.450Z,9.64
2018-12-19T11:48:25.407Z,9.61
2018-12-19T11:49:25.374Z,9.72
2018-12-19T11:50:25.339Z,9.74
2018-12-19T11:51:25.292Z,9.62
2018-12-19T11:52:25.255Z,9.62
2018-12-19T11:53:25.211Z,9.58
2018-12-19T11:54:25.172Z,9.65
2018-12-19T11:55:25.135Z,9.69
2018-12-19T11:56:25.096Z,9.69
2018-12-19T11:57:25.049Z,9.65
2018-12-19T11:58:25.016Z,9.56
2018-12-19T11:59:24.974Z,9.62
2018-12-19T12:00:24.931Z,9.66
2018-12-19T12:01:24.900Z,9.66
2018-12-19T12:02:24.858Z,9.61
2018-12-19T12:03:24.819Z,9.66
2018-12-19T12:04:24.779Z,9.69
2018-12-19T12:05:24.733Z,9.69
2018-12-19T12:06:24.696Z,9.68
2018-12-19T12:07:24.657Z,9.66
2018-12-19T12:08:24.615Z,9.68
2018-12-19T12:09:24.642Z,9.66
2018-12-19T12:10:24.540Z,9.76
2018-12-19T12:11:24.499Z,9.79
2018-12-19T12:12:24.457Z,9.72
2018-12-19T12:13:24.424Z,9.79
2018-12-19T12:14:24.382Z,9.80
2018-12-19T12:15:24.343Z,9.79
2018-12-19T12:16:24.305Z,9.79
2018-12-19T12:17:24.258Z,9.83
2018-12-19T12:18:24.222Z,9.72
2018-12-19T12:19:24.184Z,9.74
2018-12-19T12:20:24.141Z,9.80
2018-12-19T12:21:24.110Z,9.86
2018-12-19T12:22:24.066Z,9.86
2018-12-19T12:23:24.026Z,9.94
2018-12-19T12:24:23.988Z,9.94
2018-12-19T12:25:23.944Z,9.94
2018-12-19T12:26:23.906Z,10.07
2018-12-19T12:27:23.870Z,9.99
2018-12-19T12:28:23.831Z,9.98
2018-12-19T12:29:23.786Z,9.95
2018-12-19T12:30:23.750Z,9.92
2018-12-19T12:31:23.766Z,9.83
2018-12-19T12:32:23.667Z,9.74
2018-12-19T12:33:23.635Z,9.79
2018-12-19T12:34:23.594Z,9.80
2018-12-19T12:35:23.558Z,9.73
2018-12-19T12:36:23.516Z,9.68
2018-12-19T12:37:23.472Z,9.72
2018-12-19T12:38:23.435Z,9.62
2018-12-19T12:39:23.396Z,9.69
2018-12-19T12:40:23.354Z,9.68
2018-12-19T12:41:23.320Z,9.69
2018-12-19T12:42:23.282Z,9.69
2018-12-19T12:43:23.238Z,9.68
2018-12-19T12:44:23.195Z,9.65
2018-12-19T12:45:23.164Z,9.73
2018-12-19T12:46:23.123Z,9.80
2018-12-19T12:47:23.083Z,9.72
2018-12-19T12:48:23.044Z,9.69
2018-12-19T12:49:23.003Z,9.73
2018-12-19T12:50:22.962Z,9.76
2018-12-19T12:51:22.923Z,9.72
2018-12-19T12:52:22.880Z,9.86
2018-12-19T12:53:22.849Z,9.82
2018-12-19T12:54:22.807Z,9.84
2018-12-19T12:55:22.767Z,9.82
2018-12-19T12:56:22.729Z,9.86
2018-12-19T12:57:22.684Z,9.79
2018-12-19T12:58:22.647Z,9.69
2018-12-19T12:59:22.610Z,9.79
2018-12-19T13:00:22.573Z,9.73
2018-12-19T13:01:22.526Z,9.73
2018-12-19T13:02:22.488Z,9.72
2018-12-19T13:03:22.449Z,9.66
2018-12-19T13:04:22.408Z,9.77
2018-12-19T13:05:22.374Z,9.65
2018-12-19T13:06:22.333Z,9.79
2018-12-19T13:07:22.294Z,9.65
2018-12-19T13:08:22.257Z,9.74
2018-12-19T13:09:22.211Z,9.74
2018-12-19T13:10:22.174Z,9.66
2018-12-19T13:11:22.135Z,9.66
2018-12-19T13:12:22.095Z,9.68
2018-12-19T13:13:22.061Z,9.80
2018-12-19T13:14:22.019Z,9.68
2018-12-19T13:15:21.978Z,9.69
2018-12-19T13:16:21.937Z,9.69
2018-12-19T13:17:21.903Z,9.59
2018-12-19T13:18:21.862Z,9.62
2018-12-19T13:19:21.823Z,9.68
2018-12-19T13:20:21.784Z,9.62
2018-12-19T13:21:21.739Z,9.72
2018-12-19T13:22:21.704Z,9.69
2018-12-19T13:23:21.663Z,9.61
2018-12-19T13:24:21.621Z,9.73
2018-12-19T13:25:21.587Z,9.68
2018-12-19T13:26:21.547Z,9.68
2018-12-19T13:27:21.509Z,9.69
2018-12-19T13:28:21.470Z,9.68
2018-12-19T13:29:21.429Z,9.72
2018-12-19T13:30:21.386Z,9.68
2018-12-19T13:31:21.349Z,9.77
2018-12-19T13:32:21.311Z,9.69
2018-12-19T13:33:21.268Z,9.80
2018-12-19T13:34:21.228Z,9.80
2018-12-19T13:35:21.189Z,9.82
2018-12-19T13:36:21.147Z,9.83
2018-12-19T13:37:21.113Z,9.84
2018-12-19T13:38:21.073Z,9.84
2018-12-19T13:39:21.034Z,9.79
2018-12-19T13:40:20.995Z,9.80
2018-12-19T13:41:20.949Z,9.79
2018-12-19T13:42:20.913Z,9.79
2018-12-19T13:43:20.874Z,9.68
2018-12-19T13:44:20.836Z,9.79